createdAt,value
2023-03-29T00:02:02.020Z,42.34
2023-03-29T00:04:30.821Z,41.98
2023-03-29T00:06:57.595Z,41.79
2023-03-29T00:09:27.815Z,41.54
2023-03-29T00:11:55.243Z,41.59
2023-03-29T00:14:22.013Z,41.90
2023-03-29T00:16:53.609Z,41.44
2023-03-29T00:19:21.073Z,41.27
2023-03-29T00:21:47.836Z,40.98
2023-03-29T00:24:18.011Z,40.73
2023-03-29T00:26:45.003Z,40.51
2023-03-29T00:29:16.162Z,41.09
2023-03-29T00:31:53.242Z,40.42
2023-03-29T00:34:21.385Z,40.79
2023-03-29T00:36:52.380Z,40.57
2023-03-29T00:39:20.067Z,40.84
2023-03-29T00:41:47.966Z,41.26
2023-03-29T00:44:53.668Z,42.44
2023-03-29T00:47:41.814Z,40.11
2023-03-29T00:50:25.071Z,40.12
2023-03-29T00:53:27.831Z,40.56
2023-03-29T00:56:13.672Z,40.42
2023-03-29T00:58:53.598Z,40.26
2023-03-29T01:01:27.626Z,40.65
2023-03-29T01:04:02.705Z,40.54
2023-03-29T01:06:30.979Z,40.21
2023-03-29T01:09:03.010Z,40.87
2023-03-29T01:11:36.958Z,40.63
2023-03-29T01:14:06.009Z,40.68
2023-03-29T01:16:34.887Z,40.87
2023-03-29T01:19:02.298Z,40.18
2023-03-29T01:21:56.983Z,40.17
2023-03-29T01:24:44.747Z,40.10
2023-03-29T01:27:33.720Z,39.95
2023-03-29T01:30:29.251Z,39.74
2023-03-29T01:32:59.487Z,40.02
2023-03-29T01:35:35.252Z,39.92
2023-03-29T01:38:12.902Z,39.78
2023-03-29T01:40:40.017Z,39.90
2023-03-29T01:43:35.672Z,39.51
2023-03-29T01:46:20.266Z,39.65
2023-03-29T01:48:52.228Z,39.84
2023-03-29T01:51:25.396Z,39.71
2023-03-29T01:54:04.930Z,39.33
2023-03-29T01:56:34.020Z,39.74
2023-03-29T01:59:03.441Z,39.64
2023-03-29T02:01:34.219Z,39.59
2023-03-29T02:04:02.787Z,39.29
2023-03-29T02:06:32.811Z,39.29
2023-03-29T02:09:00.520Z,39.44
2023-03-29T02:11:28.875Z,39.01
2023-03-29T02:14:00.764Z,39.36
2023-03-29T02:16:28.095Z,39.29
2023-03-29T02:18:55.890Z,39.74
2023-03-29T02:22:00.982Z,39.24
2023-03-29T02:24:30.339Z,38.74
2023-03-29T02:26:59.841Z,39.26
2023-03-29T02:29:26.864Z,39.65
2023-03-29T02:31:55.305Z,38.99
2023-03-29T02:34:37.171Z,39.36
2023-03-29T02:37:15.256Z,39.53
2023-03-29T02:39:42.123Z,39.18
2023-03-29T02:42:09.558Z,38.75
2023-03-29T02:44:38.477Z,39.33
2023-03-29T02:47:13.394Z,38.97
2023-03-29T02:49:40.186Z,38.56
2023-03-29T02:52:18.758Z,38.41
2023-03-29T02:54:46.497Z,37.90
2023-03-29T02:57:21.507Z,38.62
2023-03-29T02:59:49.019Z,38.60
2023-03-29T03:02:17.035Z,38.88
2023-03-29T03:04:44.782Z,38.38
2023-03-29T03:07:13.496Z,37.92
2023-03-29T03:09:41.321Z,37.45
2023-03-29T03:12:11.386Z,37.41
2023-03-29T03:14:40.839Z,37.87
2023-03-29T03:17:07.852Z,38.24
2023-03-29T03:19:39.158Z,37.53
2023-03-29T03:22:07.243Z,37.70
2023-03-29T03:24:34.950Z,38.29
2023-03-29T03:27:01.944Z,38.13
2023-03-29T03:29:29.383Z,37.67
2023-03-29T03:32:11.273Z,37.42
2023-03-29T03:34:47.235Z,37.99
2023-03-29T03:37:14.985Z,37.98
2023-03-29T03:39:42.882Z,38.41
2023-03-29T03:42:10.227Z,38.28
2023-03-29T03:44:42.142Z,38.61
2023-03-29T03:47:20.839Z,37.90
2023-03-29T03:49:48.710Z,37.85
2023-03-29T03:52:16.071Z,38.40
2023-03-29T03:54:46.034Z,38.18
2023-03-29T03:57:32.592Z,38.48
2023-03-29T03:59:59.642Z,38.21
2023-03-29T04:02:40.224Z,37.95
2023-03-29T04:05:08.309Z,38.09
2023-03-29T04:07:38.049Z,37.85
2023-03-29T04:10:20.305Z,38.26
2023-03-29T04:12:53.653Z,38.17
2023-03-29T04:15:22.889Z,37.94
2023-03-29T04:17:59.584Z,38.10
2023-03-29T04:20:41.966Z,38.30
2023-03-29T04:23:09.752Z,37.69
2023-03-29T04:25:36.959Z,38.67
2023-03-29T04:28:04.263Z,38.28
2023-03-29T04:30:40.488Z,37.68
2023-03-29T04:33:22.523Z,39.10
2023-03-29T04:36:00.950Z,38.05
2023-03-29T04:38:29.408Z,37.69
2023-03-29T04:40:56.278Z,37.86
2023-03-29T04:43:37.263Z,37.67
2023-03-29T04:46:13.009Z,37.87
2023-03-29T04:49:00.039Z,37.93
2023-03-29T04:51:33.636Z,37.91
2023-03-29T04:54:05.320Z,37.90
2023-03-29T04:56:40.617Z,39.27
2023-03-29T04:59:26.169Z,38.74
2023-03-29T05:01:54.105Z,37.95
2023-03-29T05:04:21.061Z,38.33
2023-03-29T05:07:12.592Z,38.33
2023-03-29T05:09:41.197Z,37.79
2023-03-29T05:12:08.885Z,37.77
2023-03-29T05:14:47.920Z,38.24
2023-03-29T05:17:15.418Z,37.83
2023-03-29T05:19:42.963Z,37.55
2023-03-29T05:22:12.095Z,37.92
2023-03-29T05:24:41.672Z,37.87
2023-03-29T05:27:14.405Z,37.16
2023-03-29T05:29:44.297Z,36.97
2023-03-29T05:32:32.003Z,37.59
2023-03-29T05:34:58.875Z,37.73
2023-03-29T05:37:26.362Z,37.46
2023-03-29T05:40:05.338Z,37.42
2023-03-29T05:42:38.145Z,37.93
2023-03-29T05:45:08.887Z,37.17
2023-03-29T05:47:37.001Z,37.35
2023-03-29T05:50:08.461Z,37.48
2023-03-29T05:52:36.141Z,37.87
2023-03-29T05:55:03.844Z,37.79
2023-03-29T05:57:31.161Z,38.40
2023-03-29T05:59:58.380Z,37.91
2023-03-29T06:02:25.996Z,38.25
2023-03-29T06:04:54.763Z,37.47
2023-03-29T06:07:24.996Z,37.65
2023-03-29T06:10:15.354Z,36.96
2023-03-29T06:12:46.524Z,37.39
2023-03-29T06:15:16.061Z,37.95
2023-03-29T06:18:05.488Z,37.25
2023-03-29T06:20:36.985Z,37.66
2023-03-29T06:23:08.310Z,37.36
2023-03-29T06:25:39.994Z,37.18
2023-03-29T06:28:07.172Z,37.33
2023-03-29T06:30:34.608Z,37.58
2023-03-29T06:33:06.648Z,37.08
2023-03-29T06:35:57.105Z,37.11
2023-03-29T06:38:30.506Z,39.82
2023-03-29T06:41:05.528Z,38.01
2023-03-29T06:43:51.429Z,39.78
2023-03-29T06:46:22.635Z,38.39
2023-03-29T06:49:01.508Z,38.07
2023-03-29T06:51:43.450Z,37.91
2023-03-29T06:54:11.175Z,38.16
2023-03-29T06:56:41.578Z,36.95
2023-03-29T06:59:14.103Z,37.33
2023-03-29T07:01:55.241Z,37.31
2023-03-29T07:04:37.098Z,39.01
2023-03-29T07:07:22.140Z,36.36
2023-03-29T07:09:54.955Z,36.47
2023-03-29T07:12:44.325Z,36.50
2023-03-29T07:15:11.665Z,36.82
2023-03-29T07:18:12.962Z,36.06
2023-03-29T07:20:42.079Z,36.30
2023-03-29T07:23:09.835Z,36.74
2023-03-29T07:25:37.725Z,36.14
2023-03-29T07:28:04.666Z,35.77
2023-03-29T07:30:32.704Z,35.31
2023-03-29T07:33:26.862Z,35.78
2023-03-29T07:36:01.507Z,35.95
2023-03-29T07:38:44.910Z,35.47
2023-03-29T07:41:17.578Z,35.53
2023-03-29T07:43:51.378Z,35.24
2023-03-29T07:46:24.345Z,35.18
2023-03-29T07:48:53.185Z,35.58
2023-03-29T07:51:20.187Z,36.12
2023-03-29T07:53:55.626Z,36.04
2023-03-29T07:56:37.172Z,36.12
2023-03-29T07:59:27.229Z,35.32
2023-03-29T08:02:06.278Z,36.34
2023-03-29T08:04:45.650Z,34.94
2023-03-29T08:07:18.956Z,33.05
2023-03-29T08:10:11.903Z,31.65
2023-03-29T08:12:57.540Z,32.89
2023-03-29T08:15:35.144Z,33.23
2023-03-29T08:18:02.392Z,33.22
2023-03-29T08:20:33.389Z,33.16
2023-03-29T08:23:02.434Z,34.11
2023-03-29T08:25:46.855Z,33.78
2023-03-29T08:29:31.440Z,37.39
2023-03-29T08:32:00.590Z,34.21
2023-03-29T08:34:31.875Z,33.87
2023-03-29T08:37:29.812Z,33.73
2023-03-29T08:40:00.709Z,33.71
2023-03-29T08:43:18.468Z,33.41
2023-03-29T08:46:34.577Z,34.28
2023-03-29T08:49:13.439Z,35.71
2023-03-29T08:51:46.559Z,35.33
2023-03-29T08:54:20.880Z,37.30
2023-03-29T08:57:17.632Z,35.21
2023-03-29T08:59:51.697Z,35.39
2023-03-29T09:02:27.363Z,35.74
2023-03-29T09:05:06.907Z,35.16
2023-03-29T09:07:44.233Z,34.46
2023-03-29T09:10:16.751Z,35.35
2023-03-29T09:12:56.392Z,35.40
2023-03-29T09:15:38.888Z,36.42
2023-03-29T09:18:21.643Z,36.42
2023-03-29T09:21:25.346Z,36.53
2023-03-29T09:24:20.155Z,32.54
2023-03-29T09:27:02.690Z,31.19
2023-03-29T09:29:50.381Z,30.08
2023-03-29T09:32:23.715Z,29.61
2023-03-29T09:35:20.646Z,30.91
2023-03-29T09:37:50.165Z,32.16
2023-03-29T09:40:45.578Z,32.30
2023-03-29T09:43:22.740Z,32.00
2023-03-29T09:45:53.718Z,32.09
2023-03-29T09:48:22.140Z,32.57
2023-03-29T09:50:54.487Z,32.16
2023-03-29T09:53:36.771Z,31.88
2023-03-29T09:56:27.323Z,31.49
2023-03-29T09:59:05.457Z,31.93
2023-03-29T10:01:39.344Z,31.86
2023-03-29T10:04:10.041Z,31.51
2023-03-29T10:06:49.647Z,31.32
2023-03-29T10:09:21.883Z,30.91
2023-03-29T10:11:54.024Z,30.87
2023-03-29T10:14:31.980Z,30.97
2023-03-29T10:17:00.525Z,31.40
2023-03-29T10:19:34.955Z,31.47
2023-03-29T10:22:17.041Z,30.81
2023-03-29T10:24:51.440Z,31.37
2023-03-29T10:27:24.650Z,31.00
2023-03-29T10:29:53.105Z,30.87
2023-03-29T10:32:33.792Z,31.24
2023-03-29T10:35:35.594Z,31.15
2023-03-29T10:38:06.654Z,30.39
2023-03-29T10:40:35.369Z,30.87
2023-03-29T10:43:14.790Z,31.08
2023-03-29T10:45:43.800Z,30.67
2023-03-29T10:48:13.626Z,30.62
2023-03-29T10:50:42.993Z,30.57
2023-03-29T10:53:16.200Z,30.07
2023-03-29T10:55:52.820Z,30.94
2023-03-29T10:58:48.855Z,30.93
2023-03-29T11:01:20.080Z,30.45
2023-03-29T11:04:04.317Z,30.46
2023-03-29T11:06:58.894Z,30.44
2023-03-29T11:09:28.430Z,30.80
2023-03-29T11:12:15.574Z,31.22
2023-03-29T11:15:19.150Z,30.14
2023-03-29T11:18:03.018Z,30.50
2023-03-29T11:21:02.355Z,30.77
2023-03-29T11:23:41.671Z,30.40
2023-03-29T11:26:44.739Z,30.71
2023-03-29T11:29:36.161Z,30.04
2023-03-29T11:32:29.412Z,31.15
2023-03-29T11:35:13.628Z,31.55
2023-03-29T11:38:05.946Z,32.13
2023-03-29T11:40:47.531Z,32.46
2023-03-29T11:43:23.725Z,32.03
2023-03-29T11:46:00.280Z,31.78
2023-03-29T11:48:32.656Z,31.41
2023-03-29T11:51:19.325Z,31.20
2023-03-29T11:53:57.856Z,31.40
2023-03-29T11:56:33.854Z,31.71
2023-03-29T11:59:28.789Z,31.49
2023-03-29T12:02:05.379Z,31.81
2023-03-29T12:04:38.206Z,31.36
2023-03-29T12:07:35.100Z,31.19
2023-03-29T12:10:13.826Z,31.93
2023-03-29T12:12:49.262Z,31.42
2023-03-29T12:15:20.452Z,31.19
2023-03-29T12:18:12.235Z,31.59
2023-03-29T12:20:40.986Z,31.62
2023-03-29T12:23:13.412Z,31.70
2023-03-29T12:25:58.085Z,32.04
2023-03-29T12:28:53.441Z,31.77
2023-03-29T12:31:34.204Z,31.48
2023-03-29T12:34:14.528Z,31.40
2023-03-29T12:37:22.156Z,31.48
2023-03-29T12:40:17.106Z,31.03
2023-03-29T12:43:07.121Z,33.06
2023-03-29T12:46:27.055Z,31.37
2023-03-29T12:48:57.465Z,31.12
2023-03-29T12:51:32.668Z,31.73
2023-03-29T12:54:22.005Z,30.93
2023-03-29T12:56:54.214Z,31.63
2023-03-29T12:59:39.658Z,31.34
2023-03-29T13:02:14.322Z,31.55
2023-03-29T13:04:42.899Z,31.04
2023-03-29T13:07:23.470Z,31.73
2023-03-29T13:09:59.239Z,31.36
2023-03-29T13:12:35.173Z,31.16
2023-03-29T13:15:18.487Z,31.85
2023-03-29T13:18:04.069Z,31.99
2023-03-29T13:20:48.102Z,31.25
2023-03-29T13:23:44.622Z,31.52
2023-03-29T13:26:28.136Z,31.74
2023-03-29T13:29:12.111Z,31.75
2023-03-29T13:31:56.311Z,31.96
2023-03-29T13:34:50.149Z,32.17
2023-03-29T13:37:18.576Z,31.73
2023-03-29T13:39:54.278Z,32.26
2023-03-29T13:42:39.136Z,34.45
2023-03-29T13:45:23.582Z,32.43
2023-03-29T13:48:06.388Z,32.40
2023-03-29T13:50:52.508Z,32.04
2023-03-29T13:53:41.691Z,32.00
2023-03-29T13:56:12.579Z,31.93
2023-03-29T13:58:52.554Z,32.41
2023-03-29T14:01:36.662Z,31.86
2023-03-29T14:04:06.554Z,32.23
2023-03-29T14:06:36.798Z,32.44
2023-03-29T14:09:07.403Z,31.88
2023-03-29T14:11:37.782Z,31.96
2023-03-29T14:14:06.367Z,31.94
2023-03-29T14:16:37.180Z,32.38
2023-03-29T14:19:14.706Z,31.55
2023-03-29T14:21:43.662Z,31.52
2023-03-29T14:24:20.886Z,31.42
2023-03-29T14:26:50.060Z,31.93
2023-03-29T14:29:18.385Z,31.81
2023-03-29T14:31:47.011Z,31.77
2023-03-29T14:34:16.822Z,31.54
2023-03-29T14:36:46.872Z,32.59
2023-03-29T14:39:20.311Z,31.48
2023-03-29T14:41:55.324Z,31.47
2023-03-29T14:44:26.570Z,31.70
2023-03-29T14:46:55.751Z,31.54
2023-03-29T14:49:24.691Z,31.68
2023-03-29T14:51:53.087Z,31.44
2023-03-29T14:54:24.065Z,31.40
2023-03-29T14:56:55.567Z,31.40
2023-03-29T14:59:37.227Z,31.22
2023-03-29T15:02:21.923Z,31.34
2023-03-29T15:05:05.264Z,31.43
2023-03-29T15:07:34.302Z,31.52
2023-03-29T15:10:05.305Z,31.15
2023-03-29T15:12:33.931Z,32.06
2023-03-29T15:15:03.974Z,32.00
2023-03-29T15:17:50.129Z,31.98
2023-03-29T15:20:26.801Z,32.76
2023-03-29T15:23:17.354Z,32.79
2023-03-29T15:25:59.685Z,33.13
2023-03-29T15:28:34.266Z,33.17
2023-03-29T15:31:08.236Z,32.98
2023-03-29T15:33:39.270Z,33.11
2023-03-29T15:36:09.113Z,32.80
2023-03-29T15:38:44.172Z,32.92
2023-03-29T15:41:14.309Z,33.71
2023-03-29T15:43:43.615Z,33.98
2023-03-29T15:46:12.486Z,33.97
2023-03-29T15:48:41.151Z,33.68
2023-03-29T15:51:12.728Z,33.40
2023-03-29T15:53:41.782Z,33.41
2023-03-29T15:56:13.216Z,33.13
2023-03-29T15:58:42.660Z,33.21
2023-03-29T16:01:16.196Z,33.28
2023-03-29T16:03:47.652Z,32.96
2023-03-29T16:06:17.868Z,33.59
2023-03-29T16:08:46.686Z,35.00
2023-03-29T16:11:14.936Z,32.96
2023-03-29T16:13:43.153Z,33.72
2023-03-29T16:16:12.085Z,33.72
2023-03-29T16:18:40.510Z,33.02
2023-03-29T16:21:12.600Z,33.58
2023-03-29T16:23:41.908Z,33.17
2023-03-29T16:26:16.407Z,33.71
2023-03-29T16:28:46.360Z,33.40
2023-03-29T16:31:14.683Z,33.51
2023-03-29T16:33:44.449Z,34.12
2023-03-29T16:36:13.409Z,34.27
2023-03-29T16:38:42.280Z,33.51
2023-03-29T16:41:14.859Z,34.18
2023-03-29T16:43:43.550Z,34.63
2023-03-29T16:46:12.981Z,35.15
2023-03-29T16:48:42.050Z,34.90
2023-03-29T16:51:11.040Z,34.56
2023-03-29T16:53:40.715Z,34.49
2023-03-29T16:56:09.325Z,34.28
2023-03-29T16:58:41.627Z,34.50
2023-03-29T17:01:11.337Z,34.34
2023-03-29T17:03:40.674Z,34.85
2023-03-29T17:06:10.064Z,34.71
2023-03-29T17:08:38.879Z,33.90
2023-03-29T17:11:07.323Z,34.50
2023-03-29T17:13:35.969Z,34.84
2023-03-29T17:16:08.129Z,34.27
2023-03-29T17:18:38.337Z,36.68
2023-03-29T17:21:07.389Z,34.77
2023-03-29T17:23:35.972Z,34.50
2023-03-29T17:26:05.200Z,34.43
2023-03-29T17:28:33.879Z,34.49
2023-03-29T17:31:05.373Z,34.26
2023-03-29T17:33:36.324Z,34.82
2023-03-29T17:36:07.206Z,34.62
2023-03-29T17:38:36.230Z,34.73
2023-03-29T17:41:07.195Z,34.48
2023-03-29T17:43:37.187Z,34.34
2023-03-29T17:46:06.526Z,34.09
2023-03-29T17:48:34.781Z,33.87
2023-03-29T17:51:03.166Z,33.72
2023-03-29T17:53:32.214Z,33.25
2023-03-29T17:56:01.161Z,33.45
2023-03-29T17:58:30.662Z,33.27
2023-03-29T18:01:11.706Z,32.97
2023-03-29T18:03:40.789Z,33.36
2023-03-29T18:06:09.886Z,33.30
2023-03-29T18:08:38.849Z,33.28
2023-03-29T18:11:22.293Z,32.90
2023-03-29T18:13:51.547Z,32.80
2023-03-29T18:16:22.914Z,33.43
2023-03-29T18:18:52.455Z,32.79
2023-03-29T18:21:21.124Z,33.15
2023-03-29T18:23:57.019Z,33.53
2023-03-29T18:26:25.950Z,32.83
2023-03-29T18:28:55.322Z,33.06
2023-03-29T18:31:23.733Z,32.83
2023-03-29T18:33:52.060Z,32.68
2023-03-29T18:36:20.479Z,32.73
2023-03-29T18:38:50.643Z,32.45
2023-03-29T18:41:19.099Z,32.50
2023-03-29T18:43:47.874Z,32.55
2023-03-29T18:46:16.522Z,32.21
2023-03-29T18:48:45.473Z,32.45
2023-03-29T18:51:15.129Z,33.04
2023-03-29T18:53:44.497Z,32.69
2023-03-29T18:56:13.049Z,32.37
2023-03-29T18:58:41.287Z,32.45
2023-03-29T19:01:11.426Z,32.75
2023-03-29T19:03:42.545Z,31.77
2023-03-29T19:06:12.036Z,31.66
2023-03-29T19:08:42.172Z,31.80
2023-03-29T19:11:11.607Z,31.91
2023-03-29T19:13:40.055Z,31.47
2023-03-29T19:16:09.501Z,31.79
2023-03-29T19:18:38.876Z,31.73
2023-03-29T19:21:07.279Z,31.85
2023-03-29T19:23:36.417Z,31.79
2023-03-29T19:26:05.762Z,32.07
2023-03-29T19:28:35.274Z,32.80
2023-03-29T19:31:03.888Z,32.28
2023-03-29T19:33:33.157Z,32.21
2023-03-29T19:36:02.382Z,32.58
2023-03-29T19:38:31.734Z,32.30
2023-03-29T19:41:00.708Z,32.55
2023-03-29T19:43:29.797Z,32.61
2023-03-29T19:46:05.984Z,32.75
2023-03-29T19:48:34.536Z,32.30
2023-03-29T19:51:03.413Z,32.29
2023-03-29T19:53:32.559Z,32.30
2023-03-29T19:56:05.167Z,31.55
2023-03-29T19:58:34.904Z,31.98
2023-03-29T20:01:03.918Z,32.15
2023-03-29T20:03:34.466Z,32.13
2023-03-29T20:06:03.087Z,32.31
2023-03-29T20:08:31.418Z,32.05
2023-03-29T20:11:00.427Z,31.85
2023-03-29T20:13:38.285Z,32.03
2023-03-29T20:16:08.860Z,31.75
2023-03-29T20:18:45.353Z,31.69
2023-03-29T20:21:16.802Z,31.75
2023-03-29T20:23:46.033Z,31.58
2023-03-29T20:26:14.438Z,31.91
2023-03-29T20:28:42.858Z,31.96
2023-03-29T20:31:11.550Z,31.63
2023-03-29T20:33:41.427Z,31.28
2023-03-29T20:36:10.213Z,31.30
2023-03-29T20:38:38.778Z,31.85
2023-03-29T20:41:09.562Z,31.34
2023-03-29T20:45:21.700Z,34.53
2023-03-29T20:48:02.449Z,31.85
2023-03-29T20:50:31.701Z,31.32
2023-03-29T20:53:04.414Z,30.97
2023-03-29T20:55:38.239Z,31.39
2023-03-29T20:58:27.442Z,31.36
2023-03-29T21:00:56.051Z,31.48
2023-03-29T21:03:25.843Z,31.45
2023-03-29T21:05:55.803Z,31.22
2023-03-29T21:08:24.106Z,31.10
2023-03-29T21:10:54.946Z,31.27
2023-03-29T21:13:23.490Z,31.56
2023-03-29T21:15:52.223Z,31.42
2023-03-29T21:18:28.672Z,31.51
2023-03-29T21:20:57.379Z,31.60
2023-03-29T21:23:25.952Z,31.40
2023-03-29T21:25:54.233Z,31.77
2023-03-29T21:28:22.988Z,31.33
2023-03-29T21:30:51.309Z,31.79
2023-03-29T21:33:20.308Z,31.32
2023-03-29T21:35:49.375Z,31.48
2023-03-29T21:38:19.012Z,31.24
2023-03-29T21:40:47.198Z,31.10
2023-03-29T21:43:15.888Z,31.35
2023-03-29T21:45:49.669Z,32.83
2023-03-29T21:48:18.091Z,33.62
2023-03-29T21:50:50.596Z,33.47
2023-03-29T21:53:19.104Z,34.14
2023-03-29T21:55:51.714Z,34.03
2023-03-29T21:58:20.350Z,33.49
2023-03-29T22:00:49.025Z,33.63
2023-03-29T22:03:19.007Z,33.90
2023-03-29T22:06:09.638Z,34.26
2023-03-29T22:08:40.680Z,34.04
2023-03-29T22:11:11.156Z,33.51
2023-03-29T22:13:41.310Z,34.42
2023-03-29T22:16:14.040Z,34.05
2023-03-29T22:18:42.818Z,34.19
2023-03-29T22:21:28.503Z,34.20
2023-03-29T22:23:57.720Z,33.12
2023-03-29T22:26:28.485Z,33.09
2023-03-29T22:28:57.074Z,33.63
2023-03-29T22:31:26.166Z,34.27
2023-03-29T22:33:54.773Z,34.16
2023-03-29T22:36:28.179Z,34.19
2023-03-29T22:38:57.117Z,34.12
2023-03-29T22:41:27.793Z,34.95
2023-03-29T22:43:57.370Z,34.76
2023-03-29T22:46:26.507Z,34.69
2023-03-29T22:48:55.325Z,35.04
2023-03-29T22:51:23.885Z,34.78
2023-03-29T22:53:52.608Z,35.04
2023-03-29T22:56:20.880Z,34.90
2023-03-29T22:58:49.770Z,34.79
2023-03-29T23:01:18.109Z,34.88
2023-03-29T23:03:46.485Z,34.69
2023-03-29T23:06:14.785Z,34.90
2023-03-29T23:08:43.028Z,35.31
2023-03-29T23:11:11.748Z,35.03
2023-03-29T23:13:40.239Z,35.13
2023-03-29T23:16:08.620Z,35.11
2023-03-29T23:18:38.813Z,34.99
2023-03-29T23:21:09.221Z,35.11
2023-03-29T23:23:37.646Z,34.73
2023-03-29T23:26:08.557Z,34.85
2023-03-29T23:28:37.104Z,35.08
2023-03-29T23:31:09.958Z,35.26
2023-03-29T23:33:41.357Z,35.07
2023-03-29T23:36:11.842Z,35.03
2023-03-29T23:38:44.400Z,34.96
2023-03-29T23:41:13.214Z,35.22
2023-03-29T23:43:43.540Z,35.22
2023-03-29T23:46:15.455Z,35.05
2023-03-29T23:48:46.172Z,35.18
2023-03-29T23:51:15.288Z,35.10
2023-03-29T23:53:43.676Z,35.21
2023-03-29T23:56:12.050Z,35.29
2023-03-29T23:58:40.664Z,35.33
